sensor_id;sensor_type;location;lat;lon;timestamp;temperature;humidity
19365;DHT22;9818;48.382;10.850;2022-08-01T00:00:58;20.30;99.90
19365;DHT22;9818;48.382;10.850;2022-08-01T00:03:27;20.30;99.90
19365;DHT22;9818;48.382;10.850;2022-08-01T00:05:55;20.20;99.90
19365;DHT22;9818;48.382;10.850;2022-08-01T00:08:24;20.20;99.90
19365;DHT22;9818;48.382;10.850;2022-08-01T00:10:52;20.20;99.90
19365;DHT22;9818;48.382;10.850;2022-08-01T00:13:23;20.10;99.90
19365;DHT22;9818;48.382;10.850;2022-08-01T00:15:52;20.10;99.90
19365;DHT22;9818;48.382;10.850;2022-08-01T00:18:20;20.00;99.90
19365;DHT22;9818;48.382;10.850;2022-08-01T00:20:49;20.00;99.90
19365;DHT22;9818;48.382;10.850;2022-08-01T00:23:17;20.00;99.90
19365;DHT22;9818;48.382;10.850;2022-08-01T00:25:45;20.00;99.90
19365;DHT22;9818;48.382;10.850;2022-08-01T00:28:14;19.90;99.90
19365;DHT22;9818;48.382;10.850;2022-08-01T00:30:45;19.90;99.90
19365;DHT22;9818;48.382;10.850;2022-08-01T00:33:13;19.80;99.90
19365;DHT22;9818;48.382;10.850;2022-08-01T00:35:42;19.80;99.90
19365;DHT22;9818;48.382;10.850;2022-08-01T00:38:10;19.70;99.90
19365;DHT22;9818;48.382;10.850;2022-08-01T00:40:39;19.70;99.90
19365;DHT22;9818;48.382;10.850;2022-08-01T00:43:07;19.70;99.90
19365;DHT22;9818;48.382;10.850;2022-08-01T00:45:36;19.60;99.90
19365;DHT22;9818;48.382;10.850;2022-08-01T00:48:07;19.60;99.90
19365;DHT22;9818;48.382;10.850;2022-08-01T00:50:35;19.60;99.90
19365;DHT22;9818;48.382;10.850;2022-08-01T00:53:04;19.60;99.90
19365;DHT22;9818;48.382;10.850;2022-08-01T00:55:33;19.50;99.90
19365;DHT22;9818;48.382;10.850;2022-08-01T00:58:01;19.50;99.90
19365;DHT22;9818;48.382;10.850;2022-08-01T01:00:30;19.50;99.90
19365;DHT22;9818;48.382;10.850;2022-08-01T01:02:58;19.40;99.90
19365;DHT22;9818;48.382;10.850;2022-08-01T01:05:30;19.30;99.90
19365;DHT22;9818;48.382;10.850;2022-08-01T01:08:02;19.30;99.90
19365;DHT22;9818;48.382;10.850;2022-08-01T01:19:59;19.20;99.90
19365;DHT22;9818;48.382;10.850;2022-08-01T01:22:41;19.10;99.90
19365;DHT22;9818;48.382;10.850;2022-08-01T01:25:24;19.00;99.90
19365;DHT22;9818;48.382;10.850;2022-08-01T01:27:57;18.90;99.90
19365;DHT22;9818;48.382;10.850;2022-08-01T01:30:31;18.80;99.90
19365;DHT22;9818;48.382;10.850;2022-08-01T01:33:02;18.80;99.90
19365;DHT22;9818;48.382;10.850;2022-08-01T01:35:32;18.80;99.90
19365;DHT22;9818;48.382;10.850;2022-08-01T01:38:04;18.80;99.90
19365;DHT22;9818;48.382;10.850;2022-08-01T01:40:32;18.70;99.90
19365;DHT22;9818;48.382;10.850;2022-08-01T01:43:02;18.70;99.90
19365;DHT22;9818;48.382;10.850;2022-08-01T01:45:33;18.70;99.90
19365;DHT22;9818;48.382;10.850;2022-08-01T01:48:01;18.70;99.90
19365;DHT22;9818;48.382;10.850;2022-08-01T01:50:30;18.70;99.90
19365;DHT22;9818;48.382;10.850;2022-08-01T01:53:00;18.70;99.90
19365;DHT22;9818;48.382;10.850;2022-08-01T01:55:29;18.70;99.90
19365;DHT22;9818;48.382;10.850;2022-08-01T01:57:58;18.60;99.90
19365;DHT22;9818;48.382;10.850;2022-08-01T02:00:27;18.60;99.90
19365;DHT22;9818;48.382;10.850;2022-08-01T02:02:58;18.60;99.90
19365;DHT22;9818;48.382;10.850;2022-08-01T02:05:29;18.60;99.90
19365;DHT22;9818;48.382;10.850;2022-08-01T02:07:59;18.60;99.90
19365;DHT22;9818;48.382;10.850;2022-08-01T02:10:29;18.60;99.90
19365;DHT22;9818;48.382;10.850;2022-08-01T02:12:59;18.60;99.90
19365;DHT22;9818;48.382;10.850;2022-08-01T02:15:30;18.50;99.90
19365;DHT22;9818;48.382;10.850;2022-08-01T02:18:02;18.50;99.90
19365;DHT22;9818;48.382;10.850;2022-08-01T02:20:31;18.50;99.90
19365;DHT22;9818;48.382;10.850;2022-08-01T02:23:04;18.50;99.90
19365;DHT22;9818;48.382;10.850;2022-08-01T02:25:36;18.50;99.90
19365;DHT22;9818;48.382;10.850;2022-08-01T02:28:07;18.50;99.90
19365;DHT22;9818;48.382;10.850;2022-08-01T02:30:38;18.50;99.90
19365;DHT22;9818;48.382;10.850;2022-08-01T02:33:12;18.60;99.90
19365;DHT22;9818;48.382;10.850;2022-08-01T02:35:43;18.60;99.90
19365;DHT22;9818;48.382;10.850;2022-08-01T02:38:14;18.60;99.90
19365;DHT22;9818;48.382;10.850;2022-08-01T02:40:43;18.70;99.90
19365;DHT22;9818;48.382;10.850;2022-08-01T02:43:14;18.70;99.90
19365;DHT22;9818;48.382;10.850;2022-08-01T02:45:45;18.70;99.90
19365;DHT22;9818;48.382;10.850;2022-08-01T02:48:17;18.70;99.90
19365;DHT22;9818;48.382;10.850;2022-08-01T02:50:48;18.70;99.90
19365;DHT22;9818;48.382;10.850;2022-08-01T02:53:18;18.70;99.90
19365;DHT22;9818;48.382;10.850;2022-08-01T02:55:47;18.70;99.90
19365;DHT22;9818;48.382;10.850;2022-08-01T02:58:16;18.70;99.90
19365;DHT22;9818;48.382;10.850;2022-08-01T03:00:49;18.70;99.90
19365;DHT22;9818;48.382;10.850;2022-08-01T03:03:20;18.70;99.90
19365;DHT22;9818;48.382;10.850;2022-08-01T03:05:49;18.70;99.90
19365;DHT22;9818;48.382;10.850;2022-08-01T03:08:18;18.70;99.90
19365;DHT22;9818;48.382;10.850;2022-08-01T03:10:48;18.70;99.90
19365;DHT22;9818;48.382;10.850;2022-08-01T03:13:18;18.70;99.90
19365;DHT22;9818;48.382;10.850;2022-08-01T03:15:48;18.60;99.90
19365;DHT22;9818;48.382;10.850;2022-08-01T03:18:19;18.60;99.90
19365;DHT22;9818;48.382;10.850;2022-08-01T03:20:50;18.60;99.90
19365;DHT22;9818;48.382;10.850;2022-08-01T03:23:19;18.60;99.90
19365;DHT22;9818;48.382;10.850;2022-08-01T03:25:48;18.60;99.90
19365;DHT22;9818;48.382;10.850;2022-08-01T03:28:17;18.60;99.90
19365;DHT22;9818;48.382;10.850;2022-08-01T03:30:47;18.50;99.90
19365;DHT22;9818;48.382;10.850;2022-08-01T03:33:15;18.50;99.90
19365;DHT22;9818;48.382;10.850;2022-08-01T03:35:48;18.50;99.90
19365;DHT22;9818;48.382;10.850;2022-08-01T03:38:19;18.50;99.90
19365;DHT22;9818;48.382;10.850;2022-08-01T03:40:51;18.40;99.90
19365;DHT22;9818;48.382;10.850;2022-08-01T03:43:22;18.40;99.90
19365;DHT22;9818;48.382;10.850;2022-08-01T03:45:51;18.40;99.90
19365;DHT22;9818;48.382;10.850;2022-08-01T03:48:24;18.40;99.90
19365;DHT22;9818;48.382;10.850;2022-08-01T03:50:57;18.30;99.90
19365;DHT22;9818;48.382;10.850;2022-08-01T03:53:28;18.30;99.90
19365;DHT22;9818;48.382;10.850;2022-08-01T03:55:58;18.30;99.90
19365;DHT22;9818;48.382;10.850;2022-08-01T03:58:28;18.30;99.90
19365;DHT22;9818;48.382;10.850;2022-08-01T04:00:56;18.30;99.90
19365;DHT22;9818;48.382;10.850;2022-08-01T04:03:25;18.30;99.90
19365;DHT22;9818;48.382;10.850;2022-08-01T04:05:54;18.40;99.90
19365;DHT22;9818;48.382;10.850;2022-08-01T04:08:26;18.40;99.90
19365;DHT22;9818;48.382;10.850;2022-08-01T04:11:01;18.40;99.90
19365;DHT22;9818;48.382;10.850;2022-08-01T04:13:30;18.50;99.90
19365;DHT22;9818;48.382;10.850;2022-08-01T04:15:58;18.60;99.90
19365;DHT22;9818;48.382;10.850;2022-08-01T04:18:27;19.10;99.90
19365;DHT22;9818;48.382;10.850;2022-08-01T04:20:55;19.30;99.90
19365;DHT22;9818;48.382;10.850;2022-08-01T04:23:26;19.30;99.90
19365;DHT22;9818;48.382;10.850;2022-08-01T04:25:56;19.40;99.90
19365;DHT22;9818;48.382;10.850;2022-08-01T04:28:25;19.30;99.90
19365;DHT22;9818;48.382;10.850;2022-08-01T04:30:54;19.40;99.90
19365;DHT22;9818;48.382;10.850;2022-08-01T04:33:24;19.40;99.90
19365;DHT22;9818;48.382;10.850;2022-08-01T04:35:55;19.40;99.90
19365;DHT22;9818;48.382;10.850;2022-08-01T04:38:27;19.50;99.90
19365;DHT22;9818;48.382;10.850;2022-08-01T04:40:56;21.10;99.90
19365;DHT22;9818;48.382;10.850;2022-08-01T04:43:27;22.90;99.90
19365;DHT22;9818;48.382;10.850;2022-08-01T04:45:56;23.90;99.90
19365;DHT22;9818;48.382;10.850;2022-08-01T04:48:25;24.80;99.90
19365;DHT22;9818;48.382;10.850;2022-08-01T04:50:54;23.90;99.90
19365;DHT22;9818;48.382;10.850;2022-08-01T04:53:23;24.80;99.90
19365;DHT22;9818;48.382;10.850;2022-08-01T04:55:54;24.00;99.90
19365;DHT22;9818;48.382;10.850;2022-08-01T04:58:23;24.80;99.90
19365;DHT22;9818;48.382;10.850;2022-08-01T05:00:52;25.60;99.90
19365;DHT22;9818;48.382;10.850;2022-08-01T05:03:20;26.30;99.90
19365;DHT22;9818;48.382;10.850;2022-08-01T05:05:49;26.30;99.90
19365;DHT22;9818;48.382;10.850;2022-08-01T05:08:17;26.70;99.90
19365;DHT22;9818;48.382;10.850;2022-08-01T05:10:46;27.20;99.90
19365;DHT22;9818;48.382;10.850;2022-08-01T05:13:17;27.90;99.90
19365;DHT22;9818;48.382;10.850;2022-08-01T05:15:46;28.30;99.90
19365;DHT22;9818;48.382;10.850;2022-08-01T05:18:15;28.70;99.90
19365;DHT22;9818;48.382;10.850;2022-08-01T05:20:43;29.30;99.90
19365;DHT22;9818;48.382;10.850;2022-08-01T05:23:13;29.50;99.90
19365;DHT22;9818;48.382;10.850;2022-08-01T05:25:41;29.70;99.90
19365;DHT22;9818;48.382;10.850;2022-08-01T05:28:10;29.80;99.90
19365;DHT22;9818;48.382;10.850;2022-08-01T05:30:41;29.60;99.90
19365;DHT22;9818;48.382;10.850;2022-08-01T05:33:10;29.40;99.90
19365;DHT22;9818;48.382;10.850;2022-08-01T05:35:38;30.10;99.90
19365;DHT22;9818;48.382;10.850;2022-08-01T05:38:07;30.30;99.90
19365;DHT22;9818;48.382;10.850;2022-08-01T05:40:36;30.90;99.90
19365;DHT22;9818;48.382;10.850;2022-08-01T05:43:05;31.30;99.90
19365;DHT22;9818;48.382;10.850;2022-08-01T05:45:33;30.50;99.90
19365;DHT22;9818;48.382;10.850;2022-08-01T05:48:05;31.40;99.90
19365;DHT22;9818;48.382;10.850;2022-08-01T05:50:34;31.90;99.90
19365;DHT22;9818;48.382;10.850;2022-08-01T05:53:03;32.00;99.90
19365;DHT22;9818;48.382;10.850;2022-08-01T05:55:31;32.40;99.90
19365;DHT22;9818;48.382;10.850;2022-08-01T05:58:01;32.10;98.70
19365;DHT22;9818;48.382;10.850;2022-08-01T06:00:29;32.00;99.90
19365;DHT22;9818;48.382;10.850;2022-08-01T06:02:58;32.20;95.00
19365;DHT22;9818;48.382;10.850;2022-08-01T06:05:29;32.40;99.70
19365;DHT22;9818;48.382;10.850;2022-08-01T06:07:58;32.10;94.60
19365;DHT22;9818;48.382;10.850;2022-08-01T06:10:26;32.70;99.90
19365;DHT22;9818;48.382;10.850;2022-08-01T06:12:55;32.60;95.40
19365;DHT22;9818;48.382;10.850;2022-08-01T06:15:23;34.00;91.00
19365;DHT22;9818;48.382;10.850;2022-08-01T06:17:51;33.00;96.40
19365;DHT22;9818;48.382;10.850;2022-08-01T06:20:20;33.80;90.40
19365;DHT22;9818;48.382;10.850;2022-08-01T06:22:51;34.40;87.00
19365;DHT22;9818;48.382;10.850;2022-08-01T06:25:20;35.80;83.20
19365;DHT22;9818;48.382;10.850;2022-08-01T06:27:48;35.20;89.30
19365;DHT22;9818;48.382;10.850;2022-08-01T06:30:17;35.60;86.80
19365;DHT22;9818;48.382;10.850;2022-08-01T06:32:45;35.50;78.40
19365;DHT22;9818;48.382;10.850;2022-08-01T06:35:14;34.60;78.00
19365;DHT22;9818;48.382;10.850;2022-08-01T06:37:42;35.80;61.90
19365;DHT22;9818;48.382;10.850;2022-08-01T06:40:14;34.80;85.10
19365;DHT22;9818;48.382;10.850;2022-08-01T06:42:43;35.20;84.00
19365;DHT22;9818;48.382;10.850;2022-08-01T06:45:13;37.10;62.70
19365;DHT22;9818;48.382;10.850;2022-08-01T06:47:43;36.60;49.30
19365;DHT22;9818;48.382;10.850;2022-08-01T06:50:12;35.50;79.60
19365;DHT22;9818;48.382;10.850;2022-08-01T06:52:41;36.90;59.90
19365;DHT22;9818;48.382;10.850;2022-08-01T06:55:10;36.20;54.70
19365;DHT22;9818;48.382;10.850;2022-08-01T06:57:47;36.30;57.40
19365;DHT22;9818;48.382;10.850;2022-08-01T07:00:17;37.50;49.90
19365;DHT22;9818;48.382;10.850;2022-08-01T07:02:47;36.70;55.40
19365;DHT22;9818;48.382;10.850;2022-08-01T07:05:16;35.50;60.80
19365;DHT22;9818;48.382;10.850;2022-08-01T07:07:44;34.10;80.00
19365;DHT22;9818;48.382;10.850;2022-08-01T07:10:13;34.20;91.90
19365;DHT22;9818;48.382;10.850;2022-08-01T07:12:41;34.00;78.80
19365;DHT22;9818;48.382;10.850;2022-08-01T07:15:12;33.90;90.30
19365;DHT22;9818;48.382;10.850;2022-08-01T07:17:42;33.60;83.80
19365;DHT22;9818;48.382;10.850;2022-08-01T07:20:11;32.90;90.40
19365;DHT22;9818;48.382;10.850;2022-08-01T07:22:39;32.10;93.40
19365;DHT22;9818;48.382;10.850;2022-08-01T07:25:08;35.20;75.80
19365;DHT22;9818;48.382;10.850;2022-08-01T07:27:37;34.60;72.80
19365;DHT22;9818;48.382;10.850;2022-08-01T07:30:06;34.30;86.90
19365;DHT22;9818;48.382;10.850;2022-08-01T07:32:37;34.20;79.60
19365;DHT22;9818;48.382;10.850;2022-08-01T07:35:06;33.60;88.40
19365;DHT22;9818;48.382;10.850;2022-08-01T07:37:34;36.50;67.40
19365;DHT22;9818;48.382;10.850;2022-08-01T07:40:03;36.40;60.20
19365;DHT22;9818;48.382;10.850;2022-08-01T07:42:32;35.00;66.80
19365;DHT22;9818;48.382;10.850;2022-08-01T07:45:00;35.60;67.00
19365;DHT22;9818;48.382;10.850;2022-08-01T07:47:29;36.60;58.40
19365;DHT22;9818;48.382;10.850;2022-08-01T07:50:05;37.50;47.60
19365;DHT22;9818;48.382;10.850;2022-08-01T07:52:34;37.00;53.20
19365;DHT22;9818;48.382;10.850;2022-08-01T07:55:04;36.20;50.50
19365;DHT22;9818;48.382;10.850;2022-08-01T07:57:33;35.50;55.40
19365;DHT22;9818;48.382;10.850;2022-08-01T08:00:03;35.00;70.40
19365;DHT22;9818;48.382;10.850;2022-08-01T08:02:32;36.60;60.60
19365;DHT22;9818;48.382;10.850;2022-08-01T08:05:04;37.70;43.50
19365;DHT22;9818;48.382;10.850;2022-08-01T08:07:33;36.80;50.10
19365;DHT22;9818;48.382;10.850;2022-08-01T08:10:02;35.90;49.30
19365;DHT22;9818;48.382;10.850;2022-08-01T08:12:31;34.90;59.70
19365;DHT22;9818;48.382;10.850;2022-08-01T08:14:59;35.80;59.40
19365;DHT22;9818;48.382;10.850;2022-08-01T08:17:31;36.30;51.70
19365;DHT22;9818;48.382;10.850;2022-08-01T08:20:05;35.70;52.30
19365;DHT22;9818;48.382;10.850;2022-08-01T08:22:34;35.70;56.70
19365;DHT22;9818;48.382;10.850;2022-08-01T08:25:03;35.70;53.30
19365;DHT22;9818;48.382;10.850;2022-08-01T08:27:32;36.80;48.10
19365;DHT22;9818;48.382;10.850;2022-08-01T08:30:01;37.70;38.50
19365;DHT22;9818;48.382;10.850;2022-08-01T08:32:31;38.40;40.10
19365;DHT22;9818;48.382;10.850;2022-08-01T08:35:00;38.70;29.80
19365;DHT22;9818;48.382;10.850;2022-08-01T08:37:31;37.50;37.00
19365;DHT22;9818;48.382;10.850;2022-08-01T08:40:00;38.20;38.80
19365;DHT22;9818;48.382;10.850;2022-08-01T08:42:29;39.10;29.00
19365;DHT22;9818;48.382;10.850;2022-08-01T08:44:57;39.20;28.10
19365;DHT22;9818;48.382;10.850;2022-08-01T08:47:26;41.10;19.60
19365;DHT22;9818;48.382;10.850;2022-08-01T08:49:55;40.20;13.20
19365;DHT22;9818;48.382;10.850;2022-08-01T08:52:24;38.40;23.60
19365;DHT22;9818;48.382;10.850;2022-08-01T08:54:57;38.30;21.50
19365;DHT22;9818;48.382;10.850;2022-08-01T08:57:27;38.10;20.40
19365;DHT22;9818;48.382;10.850;2022-08-01T08:59:55;37.70;20.20
19365;DHT22;9818;48.382;10.850;2022-08-01T09:02:24;38.60;17.30
19365;DHT22;9818;48.382;10.850;2022-08-01T09:04:53;39.30;19.20
19365;DHT22;9818;48.382;10.850;2022-08-01T09:07:22;40.80;13.50
19365;DHT22;9818;48.382;10.850;2022-08-01T09:09:51;40.10;10.60
19365;DHT22;9818;48.382;10.850;2022-08-01T09:12:23;40.60;12.90
19365;DHT22;9818;48.382;10.850;2022-08-01T09:14:51;40.60;9.00
19365;DHT22;9818;48.382;10.850;2022-08-01T09:17:20;39.80;8.20
19365;DHT22;9818;48.382;10.850;2022-08-01T09:19:51;39.50;8.70
19365;DHT22;9818;48.382;10.850;2022-08-01T09:22:21;38.20;11.10
19365;DHT22;9818;48.382;10.850;2022-08-01T09:25:02;36.60;14.80
19365;DHT22;9818;48.382;10.850;2022-08-01T09:27:35;37.40;15.10
19365;DHT22;9818;48.382;10.850;2022-08-01T09:30:09;37.40;14.70
19365;DHT22;9818;48.382;10.850;2022-08-01T09:32:55;36.60;15.80
19365;DHT22;9818;48.382;10.850;2022-08-01T09:35:26;37.00;16.50
19365;DHT22;9818;48.382;10.850;2022-08-01T09:38:11;37.40;16.90
19365;DHT22;9818;48.382;10.850;2022-08-01T09:40:43;37.40;17.20
19365;DHT22;9818;48.382;10.850;2022-08-01T09:43:15;37.60;17.40
19365;DHT22;9818;48.382;10.850;2022-08-01T09:45:43;38.20;16.20
19365;DHT22;9818;48.382;10.850;2022-08-01T09:48:12;40.50;10.10
19365;DHT22;9818;48.382;10.850;2022-08-01T09:50:41;37.90;9.20
19365;DHT22;9818;48.382;10.850;2022-08-01T09:53:10;37.60;13.00
19365;DHT22;9818;48.382;10.850;2022-08-01T09:55:39;37.80;12.60
19365;DHT22;9818;48.382;10.850;2022-08-01T09:58:08;39.50;10.00
19365;DHT22;9818;48.382;10.850;2022-08-01T10:00:39;38.40;10.50
19365;DHT22;9818;48.382;10.850;2022-08-01T10:03:18;37.30;10.10
19365;DHT22;9818;48.382;10.850;2022-08-01T10:05:47;36.70;14.70
19365;DHT22;9818;48.382;10.850;2022-08-01T10:08:16;36.40;14.50
19365;DHT22;9818;48.382;10.850;2022-08-01T10:11:04;36.10;18.20
19365;DHT22;9818;48.382;10.850;2022-08-01T10:13:34;36.90;17.00
19365;DHT22;9818;48.382;10.850;2022-08-01T10:16:05;37.10;14.90
19365;DHT22;9818;48.382;10.850;2022-08-01T10:18:34;36.00;17.20
19365;DHT22;9818;48.382;10.850;2022-08-01T10:21:03;36.80;16.50
19365;DHT22;9818;48.382;10.850;2022-08-01T10:23:33;37.00;15.10
19365;DHT22;9818;48.382;10.850;2022-08-01T10:26:02;38.30;13.50
19365;DHT22;9818;48.382;10.850;2022-08-01T10:28:31;38.80;9.90
19365;DHT22;9818;48.382;10.850;2022-08-01T10:30:59;39.10;11.10
19365;DHT22;9818;48.382;10.850;2022-08-01T10:33:31;40.30;5.90
19365;DHT22;9818;48.382;10.850;2022-08-01T10:36:01;38.20;8.80
19365;DHT22;9818;48.382;10.850;2022-08-01T10:38:30;36.80;10.40
19365;DHT22;9818;48.382;10.850;2022-08-01T10:40:58;37.10;11.00
19365;DHT22;9818;48.382;10.850;2022-08-01T10:43:27;36.60;11.60
19365;DHT22;9818;48.382;10.850;2022-08-01T10:45:56;36.50;11.10
19365;DHT22;9818;48.382;10.850;2022-08-01T10:48:26;36.10;13.00
19365;DHT22;9818;48.382;10.850;2022-08-01T10:51:00;36.60;14.40
19365;DHT22;9818;48.382;10.850;2022-08-01T10:53:29;36.80;14.20
19365;DHT22;9818;48.382;10.850;2022-08-01T10:55:59;36.80;13.80
19365;DHT22;9818;48.382;10.850;2022-08-01T10:58:28;36.50;11.40
19365;DHT22;9818;48.382;10.850;2022-08-01T11:01:12;35.00;14.70
19365;DHT22;9818;48.382;10.850;2022-08-01T11:03:41;35.10;17.40
19365;DHT22;9818;48.382;10.850;2022-08-01T11:06:17;34.10;18.00
19365;DHT22;9818;48.382;10.850;2022-08-01T11:08:50;33.10;23.20
19365;DHT22;9818;48.382;10.850;2022-08-01T11:11:19;33.20;27.20
19365;DHT22;9818;48.382;10.850;2022-08-01T11:14:01;33.70;25.70
19365;DHT22;9818;48.382;10.850;2022-08-01T11:16:32;33.00;27.30
19365;DHT22;9818;48.382;10.850;2022-08-01T11:19:01;32.40;31.80
19365;DHT22;9818;48.382;10.850;2022-08-01T11:22:03;32.60;33.50
19365;DHT22;9818;48.382;10.850;2022-08-01T11:24:56;32.00;40.60
19365;DHT22;9818;48.382;10.850;2022-08-01T11:27:28;31.10;70.50
19365;DHT22;9818;48.382;10.850;2022-08-01T11:30:22;30.70;83.30
19365;DHT22;9818;48.382;10.850;2022-08-01T11:32:53;30.30;92.40
19365;DHT22;9818;48.382;10.850;2022-08-01T11:35:24;30.20;92.20
19365;DHT22;9818;48.382;10.850;2022-08-01T11:37:56;30.20;92.30
19365;DHT22;9818;48.382;10.850;2022-08-01T11:40:26;30.50;89.30
19365;DHT22;9818;48.382;10.850;2022-08-01T11:45:47;30.30;91.90
19365;DHT22;9818;48.382;10.850;2022-08-01T11:48:19;30.10;93.90
19365;DHT22;9818;48.382;10.850;2022-08-01T11:50:49;29.80;95.80
19365;DHT22;9818;48.382;10.850;2022-08-01T11:53:21;29.60;97.00
19365;DHT22;9818;48.382;10.850;2022-08-01T11:55:49;29.80;94.30
19365;DHT22;9818;48.382;10.850;2022-08-01T11:58:20;30.00;94.00
19365;DHT22;9818;48.382;10.850;2022-08-01T12:00:50;30.00;94.60
19365;DHT22;9818;48.382;10.850;2022-08-01T12:03:23;30.10;95.50
19365;DHT22;9818;48.382;10.850;2022-08-01T12:05:52;30.20;95.20
19365;DHT22;9818;48.382;10.850;2022-08-01T12:08:27;30.20;95.90
19365;DHT22;9818;48.382;10.850;2022-08-01T12:10:58;29.80;96.40
19365;DHT22;9818;48.382;10.850;2022-08-01T12:13:26;30.20;94.90
19365;DHT22;9818;48.382;10.850;2022-08-01T12:15:55;30.40;94.50
19365;DHT22;9818;48.382;10.850;2022-08-01T12:18:26;30.20;97.50
19365;DHT22;9818;48.382;10.850;2022-08-01T12:20:59;30.10;95.90
19365;DHT22;9818;48.382;10.850;2022-08-01T12:23:32;29.90;96.40
19365;DHT22;9818;48.382;10.850;2022-08-01T12:26:01;29.90;98.00
19365;DHT22;9818;48.382;10.850;2022-08-01T12:28:38;30.20;95.90
19365;DHT22;9818;48.382;10.850;2022-08-01T12:31:06;30.30;96.10
19365;DHT22;9818;48.382;10.850;2022-08-01T12:33:35;30.70;93.60
19365;DHT22;9818;48.382;10.850;2022-08-01T12:36:03;30.40;94.90
19365;DHT22;9818;48.382;10.850;2022-08-01T12:38:34;29.80;99.10
19365;DHT22;9818;48.382;10.850;2022-08-01T12:41:03;29.40;99.90
19365;DHT22;9818;48.382;10.850;2022-08-01T12:43:32;29.50;99.80
19365;DHT22;9818;48.382;10.850;2022-08-01T12:46:00;29.90;97.70
19365;DHT22;9818;48.382;10.850;2022-08-01T12:48:29;29.70;99.90
19365;DHT22;9818;48.382;10.850;2022-08-01T12:50:58;30.40;99.20
19365;DHT22;9818;48.382;10.850;2022-08-01T12:53:27;31.10;95.50
19365;DHT22;9818;48.382;10.850;2022-08-01T12:55:58;31.20;94.80
19365;DHT22;9818;48.382;10.850;2022-08-01T12:58:30;31.30;95.30
19365;DHT22;9818;48.382;10.850;2022-08-01T13:01:03;31.20;94.00
19365;DHT22;9818;48.382;10.850;2022-08-01T13:03:32;31.50;94.20
19365;DHT22;9818;48.382;10.850;2022-08-01T13:06:05;31.80;93.60
19365;DHT22;9818;48.382;10.850;2022-08-01T13:08:38;31.70;91.50
19365;DHT22;9818;48.382;10.850;2022-08-01T13:11:11;32.00;88.50
19365;DHT22;9818;48.382;10.850;2022-08-01T13:13:43;31.50;89.00
19365;DHT22;9818;48.382;10.850;2022-08-01T13:16:13;31.80;87.00
19365;DHT22;9818;48.382;10.850;2022-08-01T13:18:48;31.30;88.30
19365;DHT22;9818;48.382;10.850;2022-08-01T13:21:17;30.60;91.50
19365;DHT22;9818;48.382;10.850;2022-08-01T13:24:02;30.40;91.40
19365;DHT22;9818;48.382;10.850;2022-08-01T13:26:45;30.30;91.20
19365;DHT22;9818;48.382;10.850;2022-08-01T13:29:15;30.20;91.50
19365;DHT22;9818;48.382;10.850;2022-08-01T13:31:43;29.60;93.50
19365;DHT22;9818;48.382;10.850;2022-08-01T13:34:12;29.40;95.00
19365;DHT22;9818;48.382;10.850;2022-08-01T13:36:41;28.90;99.80
19365;DHT22;9818;48.382;10.850;2022-08-01T13:39:10;28.10;99.90
19365;DHT22;9818;48.382;10.850;2022-08-01T13:41:54;27.70;99.90
19365;DHT22;9818;48.382;10.850;2022-08-01T13:44:22;26.10;99.90
19365;DHT22;9818;48.382;10.850;2022-08-01T13:46:51;25.40;99.90
19365;DHT22;9818;48.382;10.850;2022-08-01T13:49:21;23.80;99.90
19365;DHT22;9818;48.382;10.850;2022-08-01T13:51:50;21.60;99.90
19365;DHT22;9818;48.382;10.850;2022-08-01T13:54:18;20.30;99.90
19365;DHT22;9818;48.382;10.850;2022-08-01T13:56:49;20.30;99.90
19365;DHT22;9818;48.382;10.850;2022-08-01T13:59:20;20.40;99.90
19365;DHT22;9818;48.382;10.850;2022-08-01T14:01:48;20.40;99.90
19365;DHT22;9818;48.382;10.850;2022-08-01T14:04:17;19.80;99.90
19365;DHT22;9818;48.382;10.850;2022-08-01T14:06:46;19.00;99.90
19365;DHT22;9818;48.382;10.850;2022-08-01T14:09:15;18.90;99.90
19365;DHT22;9818;48.382;10.850;2022-08-01T14:11:44;19.00;99.90
19365;DHT22;9818;48.382;10.850;2022-08-01T14:14:13;18.60;99.90
19365;DHT22;9818;48.382;10.850;2022-08-01T14:16:44;18.40;99.90
19365;DHT22;9818;48.382;10.850;2022-08-01T14:19:12;19.00;99.90
19365;DHT22;9818;48.382;10.850;2022-08-01T14:21:41;19.60;99.90
19365;DHT22;9818;48.382;10.850;2022-08-01T14:24:10;19.30;99.90
19365;DHT22;9818;48.382;10.850;2022-08-01T14:26:38;19.50;99.90
19365;DHT22;9818;48.382;10.850;2022-08-01T14:29:07;19.40;99.90
19365;DHT22;9818;48.382;10.850;2022-08-01T14:31:35;19.50;99.90
19365;DHT22;9818;48.382;10.850;2022-08-01T14:34:06;19.50;99.90
19365;DHT22;9818;48.382;10.850;2022-08-01T14:36:35;19.70;99.90
19365;DHT22;9818;48.382;10.850;2022-08-01T14:39:03;19.70;99.90
19365;DHT22;9818;48.382;10.850;2022-08-01T14:41:32;19.90;99.90
19365;DHT22;9818;48.382;10.850;2022-08-01T14:44:00;20.00;99.90
19365;DHT22;9818;48.382;10.850;2022-08-01T14:46:29;20.30;99.90
19365;DHT22;9818;48.382;10.850;2022-08-01T14:48:57;20.50;99.90
19365;DHT22;9818;48.382;10.850;2022-08-01T14:51:29;20.80;99.90
19365;DHT22;9818;48.382;10.850;2022-08-01T14:54:00;20.80;99.90
19365;DHT22;9818;48.382;10.850;2022-08-01T14:56:28;21.20;99.90
19365;DHT22;9818;48.382;10.850;2022-08-01T14:58:57;21.40;99.90
19365;DHT22;9818;48.382;10.850;2022-08-01T15:01:26;21.90;99.90
19365;DHT22;9818;48.382;10.850;2022-08-01T15:03:55;21.90;99.90
19365;DHT22;9818;48.382;10.850;2022-08-01T15:06:24;22.20;99.90
19365;DHT22;9818;48.382;10.850;2022-08-01T15:08:56;22.10;99.90
19365;DHT22;9818;48.382;10.850;2022-08-01T15:11:24;21.90;99.90
19365;DHT22;9818;48.382;10.850;2022-08-01T15:13:52;22.20;99.90
19365;DHT22;9818;48.382;10.850;2022-08-01T15:16:33;21.90;99.90
19365;DHT22;9818;48.382;10.850;2022-08-01T15:19:02;22.10;99.90
19365;DHT22;9818;48.382;10.850;2022-08-01T15:21:30;21.80;99.90
19365;DHT22;9818;48.382;10.850;2022-08-01T15:24:01;21.90;99.90
19365;DHT22;9818;48.382;10.850;2022-08-01T15:26:30;22.00;99.90
19365;DHT22;9818;48.382;10.850;2022-08-01T15:28:58;22.00;99.90
19365;DHT22;9818;48.382;10.850;2022-08-01T15:31:26;22.20;99.90
19365;DHT22;9818;48.382;10.850;2022-08-01T15:33:55;22.40;99.90
19365;DHT22;9818;48.382;10.850;2022-08-01T15:36:24;22.60;99.90
19365;DHT22;9818;48.382;10.850;2022-08-01T15:38:52;22.60;99.90
19365;DHT22;9818;48.382;10.850;2022-08-01T15:41:24;22.80;99.90
19365;DHT22;9818;48.382;10.850;2022-08-01T15:43:52;22.70;99.90
19365;DHT22;9818;48.382;10.850;2022-08-01T15:46:21;22.50;99.90
19365;DHT22;9818;48.382;10.850;2022-08-01T15:48:50;22.20;99.90
19365;DHT22;9818;48.382;10.850;2022-08-01T15:51:19;21.90;99.90
19365;DHT22;9818;48.382;10.850;2022-08-01T15:53:48;21.70;99.90
19365;DHT22;9818;48.382;10.850;2022-08-01T15:56:16;21.50;99.90
19365;DHT22;9818;48.382;10.850;2022-08-01T15:58:48;21.70;99.90
19365;DHT22;9818;48.382;10.850;2022-08-01T16:01:16;21.70;99.90